createdAt,value
2018-05-06T00:00:08.993Z,90.17
2018-05-06T00:01:17.636Z,90.17
2018-05-06T00:02:26.272Z,90.17
2018-05-06T00:03:34.923Z,90.46
2018-05-06T00:04:43.563Z,90.75
2018-05-06T00:05:52.469Z,90.84
2018-05-06T00:07:01.103Z,90.84
2018-05-06T00:08:09.748Z,91.03
2018-05-06T00:09:18.395Z,91.22
2018-05-06T00:10:27.040Z,91.6
2018-05-06T00:11:35.687Z,91.75
2018-05-06T00:12:44.317Z,92.84
2018-05-06T00:13:52.965Z,92.46
2018-05-06T00:15:01.605Z,92.65
2018-05-06T00:16:10.264Z,94.17
2018-05-06T00:17:18.898Z,93.7
2018-05-06T00:18:27.545Z,94.46
2018-05-06T00:19:36.184Z,93.94
2018-05-06T00:20:44.836Z,93.65
2018-05-06T00:21:53.468Z,93.46
2018-05-06T00:23:02.112Z,94.13
2018-05-06T00:24:10.753Z,93.08
2018-05-06T00:25:19.672Z,93.08
2018-05-06T00:26:28.312Z,93.74
2018-05-06T00:27:36.956Z,93.08
2018-05-06T00:28:45.601Z,93.27
2018-05-06T00:29:54.241Z,93.65
2018-05-06T00:31:03.420Z,93.46
2018-05-06T00:32:12.063Z,92.51
2018-05-06T00:33:20.707Z,92.51
2018-05-06T00:34:29.340Z,92.03
2018-05-06T00:35:37.990Z,91.84
2018-05-06T00:36:46.631Z,91.75
2018-05-06T00:37:55.276Z,91.75
2018-05-06T00:39:03.919Z,91.75
2018-05-06T00:40:12.565Z,91.75
2018-05-06T00:41:21.208Z,91.56
2018-05-06T00:42:30.113Z,91.56
2018-05-06T00:43:38.752Z,91.84
2018-05-06T00:44:47.656Z,91.94
2018-05-06T00:45:56.300Z,92.32
2018-05-06T00:47:04.945Z,92.51
2018-05-06T00:48:13.859Z,92.99
2018-05-06T00:49:22.497Z,93.84
2018-05-06T00:50:31.139Z,93.37
2018-05-06T00:51:39.784Z,92.89
2018-05-06T00:52:48.693Z,93.46
2018-05-06T00:53:57.330Z,92.7
2018-05-06T00:55:05.974Z,92.99
2018-05-06T00:56:14.875Z,92.7
2018-05-06T00:57:23.524Z,93.37
2018-05-06T00:58:32.161Z,93.65
2018-05-06T00:59:40.806Z,93.65
2018-05-06T01:00:49.446Z,93.84
2018-05-06T01:01:58.087Z,94.13
2018-05-06T01:03:06.726Z,93.46
2018-05-06T01:04:15.369Z,94.13
2018-05-06T01:05:24.005Z,94.03
2018-05-06T01:06:32.644Z,93.94
2018-05-06T01:07:41.288Z,93.79
2018-05-06T01:08:49.933Z,94.37
2018-05-06T01:09:58.574Z,94.74
2018-05-06T01:11:07.474Z,94.65
2018-05-06T01:12:16.119Z,95.22
2018-05-06T01:13:24.762Z,95.32
2018-05-06T01:14:33.404Z,95.32
2018-05-06T01:15:42.043Z,95.51
2018-05-06T01:16:50.694Z,95.98
2018-05-06T01:17:59.333Z,96.08
2018-05-06T01:19:07.977Z,96.26
2018-05-06T01:20:16.615Z,96.17
2018-05-06T01:21:25.264Z,96.36
2018-05-06T01:22:33.905Z,95.7
2018-05-06T01:23:42.813Z,95.89
2018-05-06T01:24:51.453Z,95.79
2018-05-06T01:26:00.089Z,96.36
2018-05-06T01:27:08.732Z,96.74
2018-05-06T01:28:17.370Z,96.94
2018-05-06T01:29:26.290Z,97.03
2018-05-06T01:30:34.923Z,97.13
2018-05-06T01:31:43.567Z,96.94
2018-05-06T01:32:52.203Z,97.31
2018-05-06T01:34:01.132Z,98.08
2018-05-06T01:35:09.763Z,98.27
2018-05-06T01:36:18.673Z,98.17
2018-05-06T01:37:27.316Z,98.55
2018-05-06T01:38:35.968Z,98.08
2018-05-06T01:39:44.609Z,98.17
2018-05-06T01:40:53.245Z,98.27
2018-05-06T01:42:01.889Z,98.27
2018-05-06T01:43:10.527Z,98.27
2018-05-06T01:44:19.177Z,98.17
2018-05-06T01:45:27.816Z,98.55
2018-05-06T01:46:36.723Z,98.17
2018-05-06T01:47:45.351Z,98.08
2018-05-06T01:48:54.002Z,98.55
2018-05-06T01:50:02.642Z,99.41
2018-05-06T01:51:11.285Z,99.69
2018-05-06T01:52:19.918Z,99.6
2018-05-06T01:53:28.569Z,99.6
2018-05-06T01:54:37.208Z,98.93
2018-05-06T01:55:45.851Z,99.02
2018-05-06T01:56:54.484Z,98.74
2018-05-06T01:58:03.128Z,97.98
2018-05-06T01:59:11.772Z,98.12
2018-05-06T02:00:20.417Z,98.41
2018-05-06T02:01:29.062Z,98.97
2018-05-06T02:02:37.694Z,98.41
2018-05-06T02:03:46.340Z,98.12
2018-05-06T02:04:55.257Z,98.12
2018-05-06T02:06:03.897Z,97.55
2018-05-06T02:07:12.526Z,97.55
2018-05-06T02:08:21.173Z,97.08
2018-05-06T02:09:29.810Z,96.69
2018-05-06T02:10:38.460Z,96.98
2018-05-06T02:11:47.096Z,96.89
2018-05-06T02:12:55.738Z,96.79
2018-05-06T02:14:04.375Z,96.69
2018-05-06T02:15:13.027Z,97.45
2018-05-06T02:16:21.664Z,97.83
2018-05-06T02:17:30.301Z,97.64
2018-05-06T02:18:38.941Z,97.27
2018-05-06T02:19:47.579Z,97.27
2018-05-06T02:20:56.228Z,98.03
2018-05-06T02:22:04.869Z,97.64
2018-05-06T02:23:13.509Z,97.74
2018-05-06T02:24:22.146Z,98.5
2018-05-06T02:25:30.792Z,99.07
2018-05-06T02:26:39.435Z,99.55
2018-05-06T02:27:48.080Z,99.55
2018-05-06T02:28:56.718Z,99.99
2018-05-06T02:30:05.367Z,99.99
2018-05-06T02:31:14.008Z,99.99
2018-05-06T02:32:22.918Z,99.99
2018-05-06T02:33:31.557Z,99.99
2018-05-06T02:34:40.204Z,99.99
2018-05-06T02:35:48.852Z,99.99
2018-05-06T02:36:57.504Z,99.99
2018-05-06T02:38:06.155Z,99.99
2018-05-06T02:39:14.808Z,99.99
2018-05-06T02:40:23.976Z,99.99
2018-05-06T02:41:32.627Z,99.99
2018-05-06T02:42:41.274Z,99.99
2018-05-06T02:43:49.911Z,99.99
2018-05-06T02:44:59.101Z,99.99
2018-05-06T02:46:07.743Z,99.99
2018-05-06T02:47:16.651Z,99.99
2018-05-06T02:48:25.288Z,99.99
2018-05-06T02:49:34.206Z,99.99
2018-05-06T02:50:42.847Z,99.99
2018-05-06T02:51:51.761Z,99.99
2018-05-06T02:53:00.404Z,99.99
2018-05-06T02:54:09.569Z,99.99
2018-05-06T02:55:18.209Z,99.99
2018-05-06T02:56:26.851Z,99.99
2018-05-06T02:57:35.761Z,99.99
2018-05-06T02:58:44.403Z,99.99
2018-05-06T02:59:53.043Z,99.99
2018-05-06T03:01:01.677Z,99.99
2018-05-06T03:02:10.322Z,99.99
2018-05-06T03:03:18.965Z,99.99
2018-05-06T03:04:27.605Z,99.99
2018-05-06T03:05:36.242Z,99.99
2018-05-06T03:06:44.889Z,99.99
2018-05-06T03:07:53.796Z,99.99
2018-05-06T03:09:02.439Z,99.99
2018-05-06T03:10:11.076Z,99.99
2018-05-06T03:11:19.713Z,99.99
2018-05-06T03:12:28.357Z,99.99
2018-05-06T03:13:36.995Z,99.99
2018-05-06T03:14:46.164Z,99.99
2018-05-06T03:15:54.801Z,99.99
2018-05-06T03:17:03.442Z,99.99
2018-05-06T03:18:12.084Z,99.99
2018-05-06T03:19:20.731Z,99.99
2018-05-06T03:20:29.369Z,99.99
2018-05-06T03:21:38.013Z,99.99
2018-05-06T03:22:46.653Z,99.99
2018-05-06T03:23:55.289Z,99.99
2018-05-06T03:25:03.932Z,99.99
2018-05-06T03:26:12.569Z,99.99
2018-05-06T03:27:21.212Z,99.99
2018-05-06T03:28:29.851Z,99.99
2018-05-06T03:29:38.492Z,99.99
2018-05-06T03:30:47.130Z,99.99
2018-05-06T03:31:56.039Z,99.99
2018-05-06T03:33:04.676Z,99.99
2018-05-06T03:34:13.312Z,99.99
2018-05-06T03:35:21.952Z,99.99
2018-05-06T03:36:30.858Z,99.99
2018-05-06T03:37:39.502Z,99.99
2018-05-06T03:38:48.137Z,99.99
2018-05-06T03:39:56.778Z,99.99
2018-05-06T03:41:05.417Z,99.99
2018-05-06T03:42:14.062Z,99.99
2018-05-06T03:43:22.960Z,99.99
2018-05-06T03:44:31.603Z,99.99
2018-05-06T03:45:40.248Z,99.99
2018-05-06T03:46:48.892Z,99.99
2018-05-06T03:47:57.529Z,99.99
2018-05-06T03:49:06.170Z,99.99
2018-05-06T03:50:14.808Z,99.99
2018-05-06T03:51:23.446Z,99.99
2018-05-06T03:52:32.092Z,99.99
2018-05-06T03:53:40.730Z,99.5
2018-05-06T03:54:49.369Z,99.5
2018-05-06T03:55:58.004Z,99.78
2018-05-06T03:57:06.654Z,98.74
2018-05-06T03:58:15.553Z,98.83
2018-05-06T03:59:24.193Z,99.21
2018-05-06T04:00:32.826Z,98.93
2018-05-06T04:01:41.471Z,98.36
2018-05-06T04:02:50.109Z,98.36
2018-05-06T04:03:59.013Z,98.07
2018-05-06T04:05:07.651Z,97.31
2018-05-06T04:06:16.552Z,97.64
2018-05-06T04:07:25.192Z,97.5
2018-05-06T04:08:34.106Z,97.17
2018-05-06T04:09:42.745Z,97.64
2018-05-06T04:10:51.388Z,97.83
2018-05-06T04:12:00.028Z,97.55
2018-05-06T04:13:08.938Z,97.55
2018-05-06T04:14:17.850Z,97.27
2018-05-06T04:15:26.486Z,96.89
2018-05-06T04:16:35.130Z,96.6
2018-05-06T04:17:43.771Z,96.5
2018-05-06T04:18:52.417Z,96.5
2018-05-06T04:20:01.047Z,96.5
2018-05-06T04:21:10.023Z,96.98
2018-05-06T04:22:18.924Z,97.36
2018-05-06T04:23:27.573Z,97.64
2018-05-06T04:24:36.212Z,97.55
2018-05-06T04:25:44.848Z,97.36
2018-05-06T04:26:53.546Z,97.45
2018-05-06T04:28:02.129Z,97.45
2018-05-06T04:29:10.774Z,96.03
2018-05-06T04:30:19.417Z,95.36
2018-05-06T04:31:28.327Z,94.42
2018-05-06T04:32:36.958Z,94.42
2018-05-06T04:33:45.606Z,94.08
2018-05-06T04:34:54.510Z,93.55
2018-05-06T04:36:03.153Z,93.18
2018-05-06T04:37:11.787Z,92.84
2018-05-06T04:38:20.435Z,92.46
2018-05-06T04:39:29.075Z,92.36
2018-05-06T04:40:37.716Z,91.51
2018-05-06T04:41:46.351Z,91.22
2018-05-06T04:42:55.002Z,91.03
2018-05-06T04:44:03.649Z,90.75
2018-05-06T04:45:12.291Z,91.13
2018-05-06T04:46:21.208Z,90.84
2018-05-06T04:47:29.841Z,90.47
2018-05-06T04:48:38.488Z,90.28
2018-05-06T04:49:47.124Z,90.47
2018-05-06T04:50:55.773Z,90.37
2018-05-06T04:52:04.409Z,90.28
2018-05-06T04:53:13.052Z,91.22
2018-05-06T04:54:21.687Z,90.56
2018-05-06T04:55:30.335Z,90.08
2018-05-06T04:56:38.967Z,90.08
2018-05-06T04:57:47.610Z,89.94
2018-05-06T04:58:56.255Z,89.94
2018-05-06T05:00:04.899Z,90.42
2018-05-06T05:01:13.540Z,90.51
2018-05-06T05:02:22.183Z,90.13
2018-05-06T05:03:30.820Z,89.37
2018-05-06T05:04:39.459Z,89.08
2018-05-06T05:05:48.107Z,88.51
2018-05-06T05:06:56.746Z,88.04
2018-05-06T05:08:05.657Z,87.94
2018-05-06T05:09:14.291Z,87.56
2018-05-06T05:10:23.207Z,87.18
2018-05-06T05:11:31.839Z,86.42
2018-05-06T05:12:40.485Z,86.46
2018-05-06T05:13:49.116Z,86.65
2018-05-06T05:14:58.030Z,86.46
2018-05-06T05:16:06.941Z,86.94
2018-05-06T05:17:15.850Z,87.32
2018-05-06T05:18:24.750Z,87.13
2018-05-06T05:19:33.394Z,86.46
2018-05-06T05:20:42.034Z,86.46
2018-05-06T05:21:50.980Z,86.46
2018-05-06T05:22:59.627Z,85.6
2018-05-06T05:24:08.269Z,85.99
2018-05-06T05:25:16.909Z,85.93
2018-05-06T05:26:25.550Z,85.84
2018-05-06T05:27:34.197Z,85.27
2018-05-06T05:28:42.835Z,85.17
2018-05-06T05:29:51.478Z,84.5
2018-05-06T05:31:00.117Z,84.5
2018-05-06T05:32:08.763Z,84.6
2018-05-06T05:33:17.400Z,84.69
2018-05-06T05:34:26.090Z,84.5
2018-05-06T05:35:35.001Z,83.07
2018-05-06T05:36:43.653Z,83.65
2018-05-06T05:37:52.548Z,83.97
2018-05-06T05:39:01.190Z,83.97
2018-05-06T05:40:09.829Z,84.07
2018-05-06T05:41:18.469Z,83.88
2018-05-06T05:42:27.382Z,83.21
2018-05-06T05:43:36.039Z,83.02
2018-05-06T05:44:44.953Z,83.78
2018-05-06T05:45:53.863Z,83.21
2018-05-06T05:47:02.511Z,82.73
2018-05-06T05:48:11.153Z,81.97
2018-05-06T05:49:19.794Z,80.92
2018-05-06T05:50:28.436Z,81.12
2018-05-06T05:51:37.342Z,81.06
2018-05-06T05:52:45.983Z,81.44
2018-05-06T05:53:54.628Z,82.01
2018-05-06T05:55:03.269Z,81.63
2018-05-06T05:56:11.912Z,80.87
2018-05-06T05:57:20.560Z,81.35
2018-05-06T05:58:29.206Z,81.54
2018-05-06T05:59:37.854Z,80.11
2018-05-06T06:00:46.495Z,80.58
2018-05-06T06:01:55.404Z,80.11
2018-05-06T06:03:04.048Z,80.11
2018-05-06T06:04:12.696Z,81.38
2018-05-06T06:05:21.598Z,81.25
2018-05-06T06:06:30.240Z,81.2
2018-05-06T06:07:38.882Z,80.81
2018-05-06T06:08:47.532Z,80.24
2018-05-06T06:09:56.171Z,79.67
2018-05-06T06:11:05.081Z,78.91
2018-05-06T06:12:13.722Z,78.33
2018-05-06T06:13:22.371Z,78.81
2018-05-06T06:14:31.020Z,77.86
2018-05-06T06:15:39.827Z,76.14
2018-05-06T06:16:48.303Z,76.37
2018-05-06T06:17:56.947Z,75.13
2018-05-06T06:19:05.613Z,74.84
2018-05-06T06:20:14.518Z,75.7
2018-05-06T06:21:23.166Z,75.7
2018-05-06T06:22:31.803Z,74.27
2018-05-06T06:23:40.455Z,74.69
2018-05-06T06:24:49.095Z,75.54
2018-05-06T06:25:57.743Z,74.59
2018-05-06T06:27:06.382Z,76.03
2018-05-06T06:28:15.297Z,75.74
2018-05-06T06:29:23.939Z,76.31
2018-05-06T06:30:32.585Z,76.03
2018-05-06T06:31:41.220Z,76.03
2018-05-06T06:32:49.875Z,75.45
2018-05-06T06:33:58.515Z,74.49
2018-05-06T06:35:07.165Z,74.88
2018-05-06T06:36:15.816Z,75.07
2018-05-06T06:37:24.712Z,74.98
2018-05-06T06:38:33.629Z,73.54
2018-05-06T06:39:42.270Z,73.16
2018-05-06T06:40:51.195Z,73.1
2018-05-06T06:41:59.830Z,73.77
2018-05-06T06:43:08.748Z,73.58
2018-05-06T06:44:17.388Z,72.81
2018-05-06T06:45:26.037Z,71.57
2018-05-06T06:46:34.670Z,71.95
2018-05-06T06:47:43.320Z,71.86
2018-05-06T06:48:52.227Z,71.38
2018-05-06T06:50:00.880Z,71.89
2018-05-06T06:51:09.522Z,71.03
2018-05-06T06:52:18.161Z,72.66
2018-05-06T06:53:26.801Z,73.52
2018-05-06T06:54:35.710Z,73.04
2018-05-06T06:55:44.393Z,72.08
2018-05-06T06:56:53.003Z,71.42
2018-05-06T06:58:01.653Z,71.13
2018-05-06T06:59:10.291Z,71.42
2018-05-06T07:00:19.212Z,71.22
2018-05-06T07:01:27.859Z,71.22
2018-05-06T07:02:36.511Z,71.7
2018-05-06T07:03:45.141Z,71.42
2018-05-06T07:04:53.795Z,71.03
2018-05-06T07:06:03.004Z,70.11
2018-05-06T07:07:11.914Z,69.73
2018-05-06T07:08:20.548Z,69.92
2018-05-06T07:09:29.199Z,70.97
2018-05-06T07:10:38.119Z,70.59
2018-05-06T07:11:46.763Z,70.68
2018-05-06T07:12:55.412Z,71.16
2018-05-06T07:14:04.049Z,70.5
2018-05-06T07:15:12.695Z,71.16
2018-05-06T07:16:21.348Z,71.93
2018-05-06T07:17:30.245Z,72.02
2018-05-06T07:18:38.899Z,72.22
2018-05-06T07:19:47.541Z,71.16
2018-05-06T07:20:56.194Z,70.3
2018-05-06T07:22:04.829Z,70.5
2018-05-06T07:23:13.484Z,70.11
2018-05-06T07:24:22.130Z,70.24
2018-05-06T07:25:31.044Z,69.76
2018-05-06T07:26:39.950Z,69.48
2018-05-06T07:27:48.866Z,69.95
2018-05-06T07:28:57.518Z,68.62
2018-05-06T07:30:06.167Z,67.47
2018-05-06T07:31:14.815Z,67.37
2018-05-06T07:32:23.456Z,66.83
2018-05-06T07:33:32.102Z,66.93
2018-05-06T07:34:40.744Z,66.74
2018-05-06T07:35:49.723Z,66.83
2018-05-06T07:36:58.306Z,67.21
2018-05-06T07:38:07.221Z,66.35
2018-05-06T07:39:15.862Z,65.58
2018-05-06T07:40:24.518Z,65.11
2018-05-06T07:41:33.212Z,65.11
2018-05-06T07:42:41.799Z,66
2018-05-06T07:43:50.440Z,66.58
2018-05-06T07:44:59.094Z,66.48
2018-05-06T07:46:07.738Z,65.58
2018-05-06T07:47:16.379Z,66
2018-05-06T07:48:25.028Z,66.77
2018-05-06T07:49:33.672Z,65.71
2018-05-06T07:50:42.596Z,65.52
2018-05-06T07:51:51.235Z,65.14
2018-05-06T07:52:59.887Z,65.52
2018-05-06T07:54:08.525Z,64.76
2018-05-06T07:55:17.181Z,64.56
2018-05-06T07:56:25.825Z,64.95
2018-05-06T07:57:34.739Z,64.89
2018-05-06T07:58:43.403Z,65.17
2018-05-06T07:59:52.032Z,64.89
2018-05-06T08:01:00.675Z,63.92
2018-05-06T08:02:09.321Z,64.22
2018-05-06T08:03:17.957Z,62.1
2018-05-06T08:04:26.604Z,62.39
2018-05-06T08:05:35.255Z,62.59
2018-05-06T08:06:43.906Z,62.59
2018-05-06T08:07:52.556Z,62.62
2018-05-06T08:09:01.232Z,62.42
2018-05-06T08:10:09.845Z,62.71
2018-05-06T08:11:18.488Z,62.23
2018-05-06T08:12:27.143Z,63.09
2018-05-06T08:13:35.782Z,63
2018-05-06T08:14:44.428Z,62.04
2018-05-06T08:15:53.075Z,61.46
2018-05-06T08:17:01.726Z,61.56
2018-05-06T08:18:10.370Z,60.6
2018-05-06T08:19:19.019Z,60.31
2018-05-06T08:20:27.664Z,60.35
2018-05-06T08:21:36.574Z,60.72
2018-05-06T08:22:45.219Z,60.63
2018-05-06T08:23:53.866Z,60.72
2018-05-06T08:25:02.510Z,60.53
2018-05-06T08:26:11.154Z,60.35
2018-05-06T08:27:19.808Z,60.15
2018-05-06T08:28:28.454Z,60.72
2018-05-06T08:29:37.113Z,60.05
2018-05-06T08:30:45.744Z,60.44
2018-05-06T08:31:54.395Z,60.72
2018-05-06T08:33:03.041Z,60.44
2018-05-06T08:34:11.689Z,60.72
2018-05-06T08:35:20.330Z,60.57
2018-05-06T08:36:28.985Z,61.24
2018-05-06T08:37:37.654Z,59.41
2018-05-06T08:38:46.283Z,58.64
2018-05-06T08:39:54.924Z,59.03
2018-05-06T08:41:03.579Z,58.36
2018-05-06T08:42:12.225Z,58.94
2018-05-06T08:43:20.873Z,58.64
2018-05-06T08:44:29.524Z,57.68
2018-05-06T08:45:38.167Z,57.78
2018-05-06T08:46:47.118Z,57.33
2018-05-06T08:47:55.767Z,57.14
2018-05-06T08:49:04.425Z,57.11
2018-05-06T08:50:13.061Z,57.68
2018-05-06T08:51:21.726Z,57.9
2018-05-06T08:52:30.355Z,57.71
2018-05-06T08:53:39.274Z,56.85
2018-05-06T08:54:47.917Z,56.56
2018-05-06T08:55:56.572Z,56.46
2018-05-06T08:57:05.217Z,57.9
2018-05-06T08:58:13.869Z,57.62
2018-05-06T08:59:22.516Z,57.84
2018-05-06T09:00:31.164Z,56.76
2018-05-06T09:01:39.810Z,56.68
2018-05-06T09:02:48.456Z,56.59
2018-05-06T09:03:57.109Z,56.78
2018-05-06T09:05:05.760Z,56.88
2018-05-06T09:06:14.409Z,57.36
2018-05-06T09:07:23.063Z,57.93
2018-05-06T09:08:31.716Z,56.4
2018-05-06T09:09:40.365Z,56.3
2018-05-06T09:10:49.016Z,56.21
2018-05-06T09:11:57.654Z,55.91
2018-05-06T09:13:06.328Z,56.62
2018-05-06T09:14:14.974Z,56.01
2018-05-06T09:15:23.890Z,54.99
2018-05-06T09:16:32.797Z,55.18
2018-05-06T09:17:41.449Z,55.76
2018-05-06T09:18:50.108Z,55.08
2018-05-06T09:19:59.059Z,55.18
2018-05-06T09:21:07.672Z,54.79
2018-05-06T09:22:16.310Z,54.41
2018-05-06T09:23:24.965Z,54.41
2018-05-06T09:24:33.870Z,53.92
2018-05-06T09:25:42.592Z,54.34
2018-05-06T09:26:51.166Z,54.24
2018-05-06T09:27:59.837Z,54.91
2018-05-06T09:29:08.468Z,55.98
2018-05-06T09:30:17.131Z,55.2
2018-05-06T09:31:25.774Z,54.63
2018-05-06T09:32:34.425Z,54.14
2018-05-06T09:33:43.071Z,53.28
2018-05-06T09:34:51.728Z,53.78
2018-05-06T09:36:00.374Z,53.47
2018-05-06T09:37:09.018Z,54.75
2018-05-06T09:38:17.664Z,53.5
2018-05-06T09:39:26.573Z,53.02
2018-05-06T09:40:35.232Z,53.21
2018-05-06T09:41:44.413Z,53.02
2018-05-06T09:42:53.068Z,52.83
2018-05-06T09:44:01.709Z,51.67
2018-05-06T09:45:10.366Z,52.63
2018-05-06T09:46:19.009Z,52.63
2018-05-06T09:47:27.665Z,52.73
2018-05-06T09:48:36.304Z,52.73
2018-05-06T09:49:44.962Z,52.54
2018-05-06T09:50:53.610Z,52.92
2018-05-06T09:52:02.263Z,53.11
2018-05-06T09:53:10.902Z,51.98
2018-05-06T09:54:19.553Z,51.89
2018-05-06T09:55:28.206Z,52.08
2018-05-06T09:56:36.858Z,51.41
2018-05-06T09:57:45.516Z,51.21
2018-05-06T09:58:54.492Z,51.21
2018-05-06T10:00:03.147Z,51.7
2018-05-06T10:01:11.792Z,51.79
2018-05-06T10:02:20.452Z,51.21
2018-05-06T10:03:29.094Z,50.18
2018-05-06T10:04:37.749Z,50.95
2018-05-06T10:05:46.392Z,49.99
2018-05-06T10:06:55.056Z,50.95
2018-05-06T10:08:03.698Z,51.14
2018-05-06T10:09:12.349Z,50.18
2018-05-06T10:10:21.003Z,50.3
2018-05-06T10:11:29.658Z,49.91
2018-05-06T10:12:38.304Z,49.22
2018-05-06T10:13:47.232Z,49.41
2018-05-06T10:14:55.881Z,50.4
2018-05-06T10:16:04.537Z,50.01
2018-05-06T10:17:13.197Z,49.63
2018-05-06T10:18:22.111Z,49.63
2018-05-06T10:19:30.760Z,51.07
2018-05-06T10:20:39.407Z,50.4
2018-05-06T10:21:48.064Z,49.53
2018-05-06T10:22:56.981Z,49.53
2018-05-06T10:24:05.634Z,49.24
2018-05-06T10:25:14.544Z,48.3
2018-05-06T10:26:23.201Z,47.51
2018-05-06T10:27:31.848Z,47.99
2018-05-06T10:28:40.501Z,47.72
2018-05-06T10:29:49.146Z,47.44
2018-05-06T10:30:57.802Z,47.24
2018-05-06T10:32:06.452Z,47.44
2018-05-06T10:33:15.102Z,47.34
2018-05-06T10:34:23.755Z,46.66
2018-05-06T10:35:32.403Z,46.47
2018-05-06T10:36:41.318Z,45.99
2018-05-06T10:37:49.971Z,46.37
2018-05-06T10:38:58.630Z,45.99
2018-05-06T10:40:07.544Z,46.37
2018-05-06T10:41:16.197Z,45.99
2018-05-06T10:42:25.115Z,46.95
2018-05-06T10:43:33.767Z,47.05
2018-05-06T10:44:42.411Z,46.18
2018-05-06T10:45:51.068Z,46.2
2018-05-06T10:46:59.719Z,46.69
2018-05-06T10:48:08.371Z,46.49
2018-05-06T10:49:17.204Z,46.88
2018-05-06T10:50:25.679Z,46.49
2018-05-06T10:51:34.325Z,44.85
2018-05-06T10:52:42.972Z,45.04
2018-05-06T10:53:52.158Z,45.14
2018-05-06T10:55:00.811Z,45.24
2018-05-06T10:56:09.457Z,45.36
2018-05-06T10:57:18.380Z,45.24
2018-05-06T10:58:27.036Z,45.07
2018-05-06T10:59:35.686Z,44.97
2018-05-06T11:00:44.335Z,44.87
2018-05-06T11:01:52.986Z,44.78
2018-05-06T11:03:01.640Z,45.26
2018-05-06T11:04:10.292Z,45.26
2018-05-06T11:05:18.945Z,45.07
2018-05-06T11:06:27.592Z,43.91
2018-05-06T11:07:36.247Z,44.01
2018-05-06T11:08:44.898Z,44.78
2018-05-06T11:09:53.550Z,45.28
2018-05-06T11:11:02.199Z,46.13
2018-05-06T11:12:10.854Z,46.25
2018-05-06T11:13:19.506Z,45
2018-05-06T11:14:28.428Z,45.38
2018-05-06T11:15:37.077Z,44.7
2018-05-06T11:16:45.730Z,44.03
2018-05-06T11:17:54.468Z,44.12
2018-05-06T11:19:03.030Z,44.12
2018-05-06T11:20:11.676Z,44.8
2018-05-06T11:21:20.332Z,44.22
2018-05-06T11:22:28.983Z,43.54
2018-05-06T11:23:37.637Z,43.54
2018-05-06T11:24:46.285Z,43.74
2018-05-06T11:25:55.201Z,43.64
2018-05-06T11:27:04.120Z,44.92
2018-05-06T11:28:12.777Z,45.5
2018-05-06T11:29:21.432Z,44.82
2018-05-06T11:30:30.080Z,44.34
2018-05-06T11:31:39.002Z,44.24
2018-05-06T11:32:47.920Z,42.79
2018-05-06T11:33:56.575Z,42.89
2018-05-06T11:35:05.229Z,43.88
2018-05-06T11:36:14.145Z,43.68
2018-05-06T11:37:23.059Z,42.91
2018-05-06T11:38:31.717Z,43.01
2018-05-06T11:39:40.365Z,43.01
2018-05-06T11:40:49.286Z,42.52
2018-05-06T11:41:57.935Z,42.43
2018-05-06T11:43:06.590Z,42.43
2018-05-06T11:44:15.241Z,41.75
2018-05-06T11:45:23.890Z,42.43
2018-05-06T11:46:32.543Z,42.89
2018-05-06T11:47:41.457Z,42.43
2018-05-06T11:48:50.116Z,41.75
2018-05-06T11:49:58.767Z,42.12
2018-05-06T11:51:07.427Z,42.7
2018-05-06T11:52:16.334Z,41.93
2018-05-06T11:53:24.990Z,41.54
2018-05-06T11:54:33.643Z,42.02
2018-05-06T11:55:42.292Z,42.7
2018-05-06T11:56:50.942Z,42.89
2018-05-06T11:57:59.597Z,42.91
2018-05-06T11:59:08.246Z,42.82
2018-05-06T12:00:16.899Z,42.52
2018-05-06T12:01:25.812Z,42.52
2018-05-06T12:02:34.469Z,42.14
2018-05-06T12:03:43.120Z,43.1
2018-05-06T12:04:51.774Z,43.3
2018-05-06T12:06:00.427Z,42.43
2018-05-06T12:07:09.077Z,42.82
2018-05-06T12:08:17.731Z,42.14
2018-05-06T12:09:26.380Z,42.43
2018-05-06T12:10:35.040Z,42.52
2018-05-06T12:11:43.685Z,42.82
2018-05-06T12:12:52.345Z,42.43
2018-05-06T12:14:01.785Z,42.33
2018-05-06T12:15:10.448Z,42.25
2018-05-06T12:16:19.089Z,42.04
2018-05-06T12:17:27.745Z,42.52
2018-05-06T12:18:36.409Z,42.43
2018-05-06T12:19:45.336Z,42.16
2018-05-06T12:20:53.986Z,41.87
2018-05-06T12:22:02.900Z,41.58
2018-05-06T12:23:11.549Z,41.67
2018-05-06T12:24:20.201Z,42.07
2018-05-06T12:25:28.863Z,41.29
2018-05-06T12:26:37.773Z,40.32
2018-05-06T12:27:46.694Z,40.81
2018-05-06T12:28:55.336Z,41.09
2018-05-06T12:30:04.000Z,41.67
2018-05-06T12:31:12.650Z,42.16
2018-05-06T12:32:21.308Z,42.65
2018-05-06T12:33:30.217Z,42.45
2018-05-06T12:34:39.164Z,42.55
2018-05-06T12:35:47.812Z,41.99
2018-05-06T12:36:56.731Z,41.79
2018-05-06T12:38:05.374Z,41.21
2018-05-06T12:39:14.032Z,41.7
2018-05-06T12:40:22.691Z,41.31
2018-05-06T12:41:31.348Z,42.08
2018-05-06T12:42:40.007Z,41.21
2018-05-06T12:43:48.655Z,41.41
2018-05-06T12:44:57.579Z,42.08
2018-05-06T12:46:06.490Z,42.18
2018-05-06T12:47:15.425Z,42.96
2018-05-06T12:48:24.064Z,42.66
2018-05-06T12:49:32.733Z,42.66
2018-05-06T12:50:41.372Z,42.57
2018-05-06T12:51:50.035Z,41.99
2018-05-06T12:52:58.677Z,42.18
2018-05-06T12:54:07.335Z,43.05
2018-05-06T12:55:15.996Z,42.57
2018-05-06T12:56:24.649Z,42.18
2018-05-06T12:57:33.298Z,42.08
2018-05-06T12:58:41.947Z,41.11
2018-05-06T12:59:50.598Z,41.41
2018-05-06T13:00:59.246Z,42.07
2018-05-06T13:02:07.910Z,42.96
2018-05-06T13:03:16.825Z,43.54
2018-05-06T13:04:25.513Z,43.54
2018-05-06T13:05:34.121Z,43.15
2018-05-06T13:06:42.777Z,42.47
2018-05-06T13:07:51.429Z,42.37
2018-05-06T13:09:00.081Z,41.7
2018-05-06T13:10:08.737Z,42.47
2018-05-06T13:11:17.646Z,41.79
2018-05-06T13:12:26.304Z,42.08
2018-05-06T13:13:34.958Z,40.34
2018-05-06T13:14:43.617Z,40.73
2018-05-06T13:15:52.267Z,40.73
2018-05-06T13:17:01.188Z,41.11
2018-05-06T13:18:10.104Z,41.02
2018-05-06T13:19:19.018Z,41.79
2018-05-06T13:20:27.675Z,42.18
2018-05-06T13:21:36.327Z,41.6
2018-05-06T13:22:44.987Z,41.7
2018-05-06T13:23:53.630Z,41.7
2018-05-06T13:25:02.288Z,41.79
2018-05-06T13:26:10.944Z,40.92
2018-05-06T13:27:19.595Z,40.73
2018-05-06T13:28:28.244Z,40.63
2018-05-06T13:29:36.897Z,40.34
2018-05-06T13:30:45.547Z,40.83
2018-05-06T13:31:54.467Z,41.31
2018-05-06T13:33:03.115Z,41.31
2018-05-06T13:34:12.031Z,41.79
2018-05-06T13:35:20.685Z,42.2
2018-05-06T13:36:29.611Z,42.2
2018-05-06T13:37:38.268Z,42.2
2018-05-06T13:38:46.916Z,42.59
2018-05-06T13:39:55.572Z,42.68
2018-05-06T13:41:04.497Z,42
2018-05-06T13:42:13.420Z,41.62
2018-05-06T13:43:22.074Z,41.62
2018-05-06T13:44:30.721Z,41.45
2018-05-06T13:45:39.649Z,40.96
2018-05-06T13:46:48.308Z,41.14
2018-05-06T13:47:56.955Z,40.84
2018-05-06T13:49:05.612Z,40.84
2018-05-06T13:50:14.327Z,40.56
2018-05-06T13:51:23.277Z,40.75
2018-05-06T13:52:31.928Z,39.69
2018-05-06T13:53:40.586Z,40.56
2018-05-06T13:54:49.500Z,40.65
2018-05-06T13:55:58.153Z,40.94
2018-05-06T13:57:06.810Z,41.33
2018-05-06T13:58:15.733Z,41.52
2018-05-06T13:59:24.919Z,41.72
2018-05-06T14:00:33.566Z,41.72
2018-05-06T14:01:42.225Z,41.42
2018-05-06T14:02:50.879Z,41.91
2018-05-06T14:03:59.531Z,41.33
2018-05-06T14:05:08.177Z,41.91
2018-05-06T14:06:16.837Z,41.62
2018-05-06T14:07:25.490Z,41.91
2018-05-06T14:08:34.151Z,42.68
2018-05-06T14:09:42.794Z,43.07
2018-05-06T14:10:51.452Z,42.97
2018-05-06T14:12:00.110Z,44.13
2018-05-06T14:13:08.764Z,43.65
2018-05-06T14:14:17.419Z,43.46
2018-05-06T14:15:26.331Z,43.07
2018-05-06T14:16:34.989Z,42.49
2018-05-06T14:17:43.636Z,42.4
2018-05-06T14:18:52.297Z,42.78
2018-05-06T14:20:00.941Z,42.78
2018-05-06T14:21:09.599Z,42.97
2018-05-06T14:22:18.248Z,43.65
2018-05-06T14:23:26.911Z,43.37
2018-05-06T14:24:35.557Z,43.55
2018-05-06T14:25:44.210Z,43.55
2018-05-06T14:26:52.862Z,43.37
2018-05-06T14:28:01.524Z,43.85
2018-05-06T14:29:10.175Z,42.97
2018-05-06T14:30:18.825Z,42.88
2018-05-06T14:31:27.477Z,43.85
2018-05-06T14:32:36.133Z,43.05
2018-05-06T14:33:44.797Z,43.24
2018-05-06T14:34:53.444Z,43.07
2018-05-06T14:36:02.103Z,42.47
2018-05-06T14:37:10.747Z,43.05
2018-05-06T14:38:19.409Z,43.44
2018-05-06T14:39:28.144Z,43.92
2018-05-06T14:40:37.068Z,43.05
2018-05-06T14:41:45.713Z,43.92
2018-05-06T14:42:54.375Z,44.12
2018-05-06T14:44:03.025Z,44.7
2018-05-06T14:45:11.682Z,43.73
2018-05-06T14:46:20.324Z,43.73
2018-05-06T14:47:29.241Z,43.92